Time;durP1;ratioP1;P1;durP2;ratioP2;P2;SDS_P1;SDS_P2;PMS_P1;PMS_P2;Temp;Humidity;BMP_temperature;BMP_pressure;BME280_temperature;BME280_humidity;BME280_pressure;Samples;Min_cycle;Max_cycle;Signal;HPM_P1;HPM_P2
2021/08/13 00:01:24;;;;;;;8.40;7.25;;;20.50;99.90;;;;;;5031698;28;20056;-71
2021/08/13 00:03:50;;;;;;;7.57;6.82;;;20.40;99.90;;;;;;5031248;28;20029;-69
2021/08/13 00:06:15;;;;;;;7.95;6.63;;;20.40;99.90;;;;;;5014693;28;20443;-69
2021/08/13 00:08:41;;;;;;;10.30;7.43;;;20.30;99.90;;;;;;5011878;28;20148;-69
2021/08/13 00:11:06;;;;;;;9.40;7.90;;;20.30;99.90;;;;;;5030045;28;20038;-69
2021/08/13 00:13:32;;;;;;;9.15;7.30;;;20.30;99.90;;;;;;5016054;28;20029;-69
2021/08/13 00:15:58;;;;;;;10.48;7.50;;;20.20;99.90;;;;;;5030388;28;20045;-69
2021/08/13 00:18:23;;;;;;;11.32;8.23;;;20.20;99.90;;;;;;5030941;28;20072;-70
2021/08/13 00:20:49;;;;;;;9.32;8.25;;;20.20;99.90;;;;;;5030957;28;20037;-69
2021/08/13 00:23:15;;;;;;;8.98;7.35;;;20.20;99.90;;;;;;5029134;28;20105;-69
2021/08/13 00:25:40;;;;;;;8.02;7.03;;;20.10;99.90;;;;;;5012610;28;20510;-69
2021/08/13 00:28:06;;;;;;;8.48;7.57;;;20.10;99.90;;;;;;5012133;28;20033;-69
2021/08/13 00:30:32;;;;;;;11.00;7.43;;;20.10;99.90;;;;;;5011325;28;20040;-69
2021/08/13 00:32:58;;;;;;;9.40;7.22;;;20.10;99.90;;;;;;5011496;28;20037;-69
2021/08/13 00:35:23;;;;;;;7.80;7.00;;;20.00;99.90;;;;;;5011940;28;20026;-70
2021/08/13 00:37:49;;;;;;;10.88;7.93;;;20.00;99.90;;;;;;5010960;28;20049;-69
2021/08/13 00:40:15;;;;;;;10.63;7.72;;;20.00;99.90;;;;;;5026700;28;21774;-69
2021/08/13 00:42:41;;;;;;;8.40;6.72;;;20.00;99.90;;;;;;5021889;28;20021;-69
2021/08/13 00:45:07;;;;;;;9.23;7.95;;;20.00;99.90;;;;;;5028919;28;20101;-69
2021/08/13 00:47:32;;;;;;;8.20;7.00;;;19.90;99.90;;;;;;5010744;28;20038;-70
2021/08/13 00:49:58;;;;;;;12.00;8.02;;;19.90;99.90;;;;;;5028923;28;20100;-69
2021/08/13 00:52:24;;;;;;;9.25;7.75;;;19.90;99.90;;;;;;5030693;28;20038;-69
2021/08/13 00:54:50;;;;;;;9.07;7.40;;;19.90;99.90;;;;;;5024642;28;20423;-69
2021/08/13 00:57:16;;;;;;;9.05;7.63;;;19.90;99.90;;;;;;5011685;28;20034;-69
2021/08/13 00:59:41;;;;;;;7.88;7.07;;;19.80;99.90;;;;;;5029549;28;20061;-69
2021/08/13 01:02:08;;;;;;;9.35;7.32;;;19.80;99.90;;;;;;5030854;28;20419;-69
2021/08/13 01:04:34;;;;;;;11.30;7.55;;;19.70;99.90;;;;;;5028937;28;20378;-69
2021/08/13 01:07:01;;;;;;;12.98;8.13;;;19.70;99.90;;;;;;5030974;28;20029;-69
2021/08/13 01:09:27;;;;;;;11.13;8.80;;;19.80;99.90;;;;;;5015457;28;20388;-71
2021/08/13 01:12:08;;;;;;;8.60;7.70;;;19.70;99.90;;;;;;5012027;28;20034;-69
2021/08/13 01:14:54;;;;;;;8.45;7.47;;;19.70;99.90;;;;;;5010839;28;20030;-69
2021/08/13 01:17:21;;;;;;;10.55;7.93;;;19.70;99.90;;;;;;5011570;28;20145;-69
2021/08/13 01:20:06;;;;;;;10.70;8.88;;;19.70;99.90;;;;;;5013585;28;20033;-69
2021/08/13 01:23:11;;;;;;;9.85;7.45;;;19.70;99.90;;;;;;5014753;28;20076;-69
2021/08/13 01:25:42;;;;;;;10.60;8.10;;;19.60;99.90;;;;;;5014251;28;20048;-69
2021/08/13 01:28:36;;;;;;;10.15;8.05;;;19.60;99.90;;;;;;5031518;28;20053;-69
2021/08/13 01:31:11;;;;;;;10.02;7.60;;;19.50;99.90;;;;;;5032393;28;20040;-69
2021/08/13 01:33:40;;;;;;;10.43;8.05;;;19.50;99.90;;;;;;5014543;28;20106;-69
2021/08/13 01:36:08;;;;;;;11.80;8.07;;;19.50;99.90;;;;;;5015123;28;20038;-69
2021/08/13 01:38:34;;;;;;;10.57;8.07;;;19.60;99.90;;;;;;5023306;28;20475;-69
2021/08/13 01:41:04;;;;;;;11.68;8.20;;;19.60;99.90;;;;;;5026353;28;20049;-69
2021/08/13 01:43:31;;;;;;;13.18;8.70;;;19.60;99.90;;;;;;5033652;28;20064;-71
2021/08/13 01:45:58;;;;;;;14.05;8.85;;;19.60;99.90;;;;;;5023322;28;20099;-69
2021/08/13 01:48:26;;;;;;;10.63;8.68;;;19.60;99.90;;;;;;5017066;28;20034;-69
2021/08/13 01:50:52;;;;;;;10.23;7.78;;;19.50;99.90;;;;;;5033443;28;20084;-69
2021/08/13 01:53:20;;;;;;;9.25;7.70;;;19.50;99.90;;;;;;5025795;28;20467;-70
2021/08/13 01:55:46;;;;;;;10.93;7.75;;;19.40;99.90;;;;;;5015472;28;20092;-69
2021/08/13 01:58:12;;;;;;;11.70;9.00;;;19.40;99.90;;;;;;5014668;28;20036;-69
2021/08/13 02:00:39;;;;;;;10.88;8.80;;;19.40;99.90;;;;;;5013524;28;20030;-69
2021/08/13 02:03:07;;;;;;;16.08;8.88;;;19.40;99.90;;;;;;5013450;28;20026;-69
2021/08/13 02:05:34;;;;;;;12.35;8.77;;;19.40;99.90;;;;;;5013431;28;20121;-70
2021/08/13 02:08:03;;;;;;;11.85;8.82;;;19.40;99.90;;;;;;5024241;28;20690;-69
2021/08/13 02:10:30;;;;;;;11.52;9.07;;;19.40;99.90;;;;;;5026876;28;20438;-71
2021/08/13 02:12:56;;;;;;;10.27;8.05;;;19.30;99.90;;;;;;5014167;28;20034;-70
2021/08/13 02:15:22;;;;;;;9.68;7.43;;;19.30;99.90;;;;;;5017781;28;20146;-70
2021/08/13 02:17:55;;;;;;;12.27;8.95;;;19.30;99.90;;;;;;5032745;28;20265;-69
2021/08/13 02:20:22;;;;;;;10.23;7.97;;;19.20;99.90;;;;;;5033070;28;20390;-69
2021/08/13 02:22:48;;;;;;;10.95;7.32;;;19.30;99.90;;;;;;5018452;28;20025;-69
2021/08/13 02:25:14;;;;;;;10.57;8.05;;;19.30;99.90;;;;;;5031260;28;20034;-70
2021/08/13 02:27:40;;;;;;;9.52;8.23;;;19.30;99.90;;;;;;5032736;28;20033;-69
2021/08/13 02:30:07;;;;;;;8.77;7.88;;;19.30;99.90;;;;;;5031702;28;20025;-70
2021/08/13 02:32:34;;;;;;;11.48;8.30;;;19.30;99.90;;;;;;5032065;28;20038;-70
2021/08/13 02:35:02;;;;;;;13.00;8.32;;;19.40;99.90;;;;;;5031179;28;20033;-70
2021/08/13 02:37:35;;;;;;;8.27;7.28;;;19.40;99.90;;;;;;5023629;28;20134;-70
2021/08/13 02:40:14;;;;;;;11.55;8.82;;;19.40;99.90;;;;;;5032614;28;20061;-70
2021/08/13 02:42:56;;;;;;;9.82;7.97;;;19.40;99.90;;;;;;5030789;28;20030;-70
2021/08/13 02:45:24;;;;;;;10.65;8.18;;;19.40;99.90;;;;;;5032741;28;20036;-70
2021/08/13 02:47:58;;;;;;;12.52;8.77;;;19.40;99.90;;;;;;5018065;28;20091;-69
2021/08/13 02:50:26;;;;;;;10.45;8.25;;;19.40;99.90;;;;;;5015525;28;20403;-70
2021/08/13 02:52:57;;;;;;;11.13;8.27;;;19.40;99.90;;;;;;5018661;28;20064;-70
2021/08/13 02:55:36;;;;;;;9.05;7.68;;;19.40;99.90;;;;;;5014394;28;20053;-70
2021/08/13 02:58:02;;;;;;;10.32;8.27;;;19.40;99.90;;;;;;5030098;28;20176;-69
2021/08/13 03:00:28;;;;;;;10.32;8.27;;;19.40;99.90;;;;;;5032416;28;20025;-70
2021/08/13 03:02:55;;;;;;;10.10;7.20;;;19.40;99.90;;;;;;5032440;28;20033;-69
2021/08/13 03:05:24;;;;;;;12.55;8.73;;;19.40;99.90;;;;;;5024761;28;20041;-69
2021/08/13 03:07:51;;;;;;;13.25;8.27;;;19.40;99.90;;;;;;5031312;28;20542;-69
2021/08/13 03:10:17;;;;;;;11.02;8.63;;;19.50;99.90;;;;;;5019729;28;20034;-70
2021/08/13 03:12:43;;;;;;;12.32;9.15;;;19.50;99.90;;;;;;5012721;28;20045;-70
2021/08/13 03:15:10;;;;;;;10.27;8.48;;;19.60;99.90;;;;;;5016214;28;20414;-70
2021/08/13 03:17:37;;;;;;;10.65;7.45;;;19.60;99.90;;;;;;5017496;28;20085;-70
2021/08/13 03:20:04;;;;;;;9.50;8.18;;;19.60;99.90;;;;;;5021157;28;20037;-70
2021/08/13 03:22:30;;;;;;;10.18;7.78;;;19.60;99.90;;;;;;5012933;28;20033;-71
2021/08/13 03:24:56;;;;;;;12.73;8.50;;;19.70;99.90;;;;;;5012740;28;20045;-70
2021/08/13 03:27:23;;;;;;;13.02;8.32;;;19.70;99.90;;;;;;5013251;28;20104;-70
2021/08/13 03:29:49;;;;;;;11.52;8.40;;;19.70;99.90;;;;;;5018274;28;20025;-69
2021/08/13 03:32:18;;;;;;;10.38;7.95;;;19.70;99.90;;;;;;5031553;28;20125;-70
2021/08/13 03:34:44;;;;;;;9.88;8.13;;;19.70;99.90;;;;;;5027155;28;20054;-70
2021/08/13 03:37:09;;;;;;;10.23;8.60;;;19.70;99.90;;;;;;5011977;28;20061;-69
2021/08/13 03:39:35;;;;;;;11.05;8.38;;;19.70;99.90;;;;;;5011530;28;20424;-70
2021/08/13 03:42:01;;;;;;;12.32;9.48;;;19.70;99.90;;;;;;5011830;28;20037;-70
2021/08/13 03:44:26;;;;;;;11.55;9.30;;;19.80;99.90;;;;;;5012902;28;20398;-69
2021/08/13 03:46:52;;;;;;;10.98;8.85;;;19.80;99.90;;;;;;5021031;28;20025;-69
2021/08/13 03:49:17;;;;;;;13.65;9.48;;;19.80;99.90;;;;;;5018060;28;20025;-69
2021/08/13 03:51:43;;;;;;;12.30;9.52;;;20.10;99.90;;;;;;5013895;28;20056;-70
2021/08/13 03:54:09;;;;;;;10.98;9.27;;;20.00;99.90;;;;;;5012204;28;20467;-69
2021/08/13 03:56:34;;;;;;;11.27;9.30;;;20.00;99.90;;;;;;5011622;28;20084;-70
2021/08/13 03:59:00;;;;;;;9.10;8.13;;;20.00;99.90;;;;;;5012717;28;20112;-71
2021/08/13 04:01:26;;;;;;;10.80;9.00;;;19.90;99.90;;;;;;5012788;28;20033;-70
2021/08/13 04:03:52;;;;;;;11.00;9.10;;;19.90;99.90;;;;;;5019172;28;20029;-70
2021/08/13 04:06:18;;;;;;;10.70;8.85;;;19.90;99.90;;;;;;5030987;28;20069;-70
2021/08/13 04:08:43;;;;;;;12.35;8.77;;;19.80;99.90;;;;;;5029923;28;20095;-71
2021/08/13 04:11:09;;;;;;;10.65;8.70;;;19.80;99.90;;;;;;5012459;28;20320;-69
2021/08/13 04:13:34;;;;;;;13.77;8.50;;;19.80;99.90;;;;;;5017015;28;20025;-72
2021/08/13 04:16:00;;;;;;;12.05;8.95;;;19.80;99.90;;;;;;5017405;28;20038;-70
2021/08/13 04:18:26;;;;;;;13.95;8.85;;;19.80;99.90;;;;;;5020331;28;20368;-69
2021/08/13 04:20:51;;;;;;;10.80;9.63;;;19.80;99.90;;;;;;5030159;28;20566;-70
2021/08/13 04:23:17;;;;;;;10.27;8.98;;;19.80;99.90;;;;;;5030751;28;20025;-69
2021/08/13 04:25:43;;;;;;;11.93;8.55;;;19.80;99.90;;;;;;5018998;28;20030;-69
2021/08/13 04:28:09;;;;;;;10.98;8.68;;;19.80;99.90;;;;;;5012608;28;20022;-71
2021/08/13 04:30:34;;;;;;;10.02;8.90;;;19.80;99.90;;;;;;5011044;28;20029;-71
2021/08/13 04:33:06;;;;;;;10.75;8.23;;;19.70;99.90;;;;;;5019461;28;20434;-69
2021/08/13 04:35:32;;;;;;;8.95;8.05;;;19.70;99.90;;;;;;5018065;28;20087;-69
2021/08/13 04:37:57;;;;;;;14.15;9.38;;;19.70;99.90;;;;;;5030346;28;20089;-69
2021/08/13 04:40:23;;;;;;;14.23;9.52;;;19.70;99.90;;;;;;5031055;28;20468;-69
2021/08/13 04:42:48;;;;;;;12.15;9.60;;;19.70;99.90;;;;;;5030749;28;20036;-69
2021/08/13 04:45:14;;;;;;;11.43;8.60;;;19.70;99.90;;;;;;5030751;28;20059;-69
2021/08/13 04:47:40;;;;;;;11.73;9.15;;;19.70;99.90;;;;;;5017962;28;20067;-68
2021/08/13 04:50:06;;;;;;;13.80;9.77;;;19.70;99.90;;;;;;5012190;28;20030;-69
2021/08/13 04:52:32;;;;;;;13.77;10.23;;;19.70;99.90;;;;;;5011644;28;20096;-70
2021/08/13 04:54:57;;;;;;;11.10;9.07;;;19.80;99.90;;;;;;5021080;28;20025;-79
2021/08/13 04:57:23;;;;;;;12.80;9.07;;;19.80;99.90;;;;;;5030762;28;20033;-83
2021/08/13 04:59:48;;;;;;;13.57;8.85;;;19.80;99.90;;;;;;5030552;28;20072;-79
2021/08/13 05:02:21;;;;;;;12.52;9.43;;;19.90;99.90;;;;;;5017192;28;20033;-76
2021/08/13 05:04:46;;;;;;;11.95;9.27;;;19.90;99.90;;;;;;5012919;28;20026;-74
2021/08/13 05:07:12;;;;;;;12.80;9.52;;;19.90;99.90;;;;;;5031245;28;20112;-73
2021/08/13 05:09:37;;;;;;;12.65;9.60;;;19.90;99.90;;;;;;5022229;28;20068;-74
2021/08/13 05:12:03;;;;;;;13.13;9.35;;;19.90;99.90;;;;;;5011458;28;20502;-75
2021/08/13 05:14:29;;;;;;;11.93;8.90;;;19.90;99.90;;;;;;5011885;28;20034;-75
2021/08/13 05:16:54;;;;;;;11.68;8.55;;;19.90;99.90;;;;;;5027488;28;20116;-77
2021/08/13 05:19:20;;;;;;;9.20;8.30;;;19.90;99.90;;;;;;5031026;28;20497;-77
2021/08/13 05:21:46;;;;;;;10.23;8.77;;;19.90;99.90;;;;;;5023427;28;20105;-75
2021/08/13 05:24:11;;;;;;;10.15;8.75;;;20.00;99.90;;;;;;5010754;28;20434;-76
2021/08/13 05:26:40;;;;;;;16.05;9.07;;;20.00;99.90;;;;;;5025457;28;20030;-70
2021/08/13 05:29:06;;;;;;;13.15;8.98;;;20.00;99.90;;;;;;5028118;28;20726;-71
2021/08/13 05:31:32;;;;;;;9.90;8.60;;;20.10;99.90;;;;;;5029938;28;20079;-71
2021/08/13 05:33:57;;;;;;;11.07;9.20;;;20.20;99.90;;;;;;5028719;28;20037;-71
2021/08/13 05:36:23;;;;;;;12.68;8.82;;;20.30;99.90;;;;;;5017399;28;20084;-76
2021/08/13 05:38:48;;;;;;;13.90;9.75;;;20.40;99.90;;;;;;5010107;28;20038;-78
2021/08/13 05:41:14;;;;;;;12.55;8.98;;;20.60;99.90;;;;;;5020517;28;20414;-77
2021/08/13 05:43:40;;;;;;;9.30;8.07;;;20.70;99.90;;;;;;5027718;28;20027;-77
2021/08/13 05:46:05;;;;;;;13.07;8.77;;;20.80;99.90;;;;;;5029431;28;20026;-78
2021/08/13 05:48:31;;;;;;;9.40;8.35;;;20.80;99.90;;;;;;5028613;28;20057;-77
2021/08/13 05:50:58;;;;;;;9.70;8.70;;;20.90;99.90;;;;;;5029578;28;20867;-76
2021/08/13 05:53:23;;;;;;;10.15;8.60;;;20.90;99.90;;;;;;5028509;28;20073;-69
2021/08/13 05:55:49;;;;;;;10.52;8.60;;;20.90;99.90;;;;;;5024218;28;20021;-71
2021/08/13 05:58:14;;;;;;;10.50;8.95;;;21.00;99.90;;;;;;5011872;28;20026;-71
2021/08/13 06:00:40;;;;;;;10.65;8.82;;;21.10;99.90;;;;;;5022489;28;20034;-76
2021/08/13 06:03:06;;;;;;;12.85;10.10;;;21.20;99.90;;;;;;5025053;28;20471;-77
2021/08/13 06:05:32;;;;;;;14.27;10.48;;;21.20;99.90;;;;;;5029746;28;20383;-75
2021/08/13 06:07:57;;;;;;;13.73;10.48;;;21.20;99.90;;;;;;5016849;28;20172;-76
2021/08/13 06:10:23;;;;;;;15.68;10.73;;;21.40;99.90;;;;;;5026196;28;20083;-76
2021/08/13 06:12:49;;;;;;;15.85;10.80;;;21.50;99.90;;;;;;5027440;28;20030;-76
2021/08/13 06:15:16;;;;;;;16.60;10.38;;;21.60;99.90;;;;;;5030428;28;20025;-75
2021/08/13 06:17:43;;;;;;;14.80;10.25;;;21.70;99.90;;;;;;5031094;28;20110;-71
2021/08/13 06:20:13;;;;;;;14.88;10.40;;;21.80;99.90;;;;;;5033581;28;20044;-72
2021/08/13 06:22:39;;;;;;;15.15;10.30;;;21.90;99.90;;;;;;5024980;28;20044;-78
2021/08/13 06:25:05;;;;;;;12.05;9.43;;;21.90;99.90;;;;;;5032121;28;20387;-72
2021/08/13 06:27:32;;;;;;;11.35;9.38;;;22.10;99.90;;;;;;5024696;28;20037;-71
2021/08/13 06:29:57;;;;;;;13.02;10.35;;;22.30;99.90;;;;;;5032070;28;20021;-74
2021/08/13 06:32:24;;;;;;;16.15;10.77;;;22.60;99.90;;;;;;5032734;28;20060;-71
2021/08/13 06:34:49;;;;;;;14.68;10.65;;;23.00;99.90;;;;;;5032176;28;20083;-71
2021/08/13 06:37:15;;;;;;;14.20;9.57;;;23.20;99.90;;;;;;5032104;28;20401;-73
2021/08/13 06:39:41;;;;;;;12.48;9.25;;;23.40;99.90;;;;;;5031970;28;20129;-72
2021/08/13 06:42:07;;;;;;;14.65;10.00;;;23.50;99.90;;;;;;5016835;28;20117;-72
2021/08/13 06:44:32;;;;;;;11.52;9.95;;;23.60;99.90;;;;;;5013551;28;20467;-71
2021/08/13 06:46:58;;;;;;;13.70;9.90;;;23.60;99.90;;;;;;5013087;28;20026;-71
2021/08/13 06:49:24;;;;;;;14.15;9.93;;;23.80;99.90;;;;;;5013792;28;20101;-71
2021/08/13 06:51:49;;;;;;;17.98;9.00;;;23.80;99.90;;;;;;5024468;28;20038;-72
2021/08/13 06:54:15;;;;;;;11.20;8.82;;;23.90;99.90;;;;;;5032647;28;20061;-71
2021/08/13 06:56:40;;;;;;;13.32;9.35;;;23.90;99.00;;;;;;5023176;28;20033;-75
2021/08/13 06:59:06;;;;;;;9.90;8.35;;;24.10;98.00;;;;;;5032827;28;20030;-72
2021/08/13 07:01:32;;;;;;;11.65;8.27;;;24.10;97.80;;;;;;5033522;28;20025;-71
2021/08/13 07:03:57;;;;;;;11.68;8.70;;;24.10;97.60;;;;;;5031560;28;20110;-71
2021/08/13 07:06:23;;;;;;;13.80;8.57;;;24.20;97.50;;;;;;5033022;28;20030;-71
2021/08/13 07:08:48;;;;;;;12.10;9.27;;;24.30;96.80;;;;;;5024978;28;20029;-72
2021/08/13 07:11:14;;;;;;;11.93;9.27;;;24.40;96.40;;;;;;5014113;28;20034;-71
2021/08/13 07:13:40;;;;;;;16.13;10.35;;;24.50;96.10;;;;;;5017740;28;20037;-75
2021/08/13 07:16:05;;;;;;;14.40;8.40;;;24.60;95.80;;;;;;5024088;28;20045;-70
2021/08/13 07:18:31;;;;;;;10.68;8.82;;;24.70;95.60;;;;;;5028946;28;20038;-71
2021/08/13 07:20:57;;;;;;;14.15;9.25;;;24.80;95.70;;;;;;5027260;28;20033;-71
2021/08/13 07:23:22;;;;;;;12.55;9.57;;;25.00;95.30;;;;;;5030973;28;20033;-71
2021/08/13 07:25:48;;;;;;;18.40;10.80;;;25.20;95.00;;;;;;5013409;28;20053;-71
2021/08/13 07:28:13;;;;;;;13.80;10.32;;;25.40;94.30;;;;;;5012710;28;20034;-70
2021/08/13 07:30:39;;;;;;;19.13;10.43;;;25.50;94.70;;;;;;5012257;28;20048;-72
2021/08/13 07:33:05;;;;;;;19.70;10.85;;;25.40;94.70;;;;;;5012560;28;20375;-71
2021/08/13 07:35:30;;;;;;;21.58;11.07;;;25.30;95.00;;;;;;5012318;28;20085;-71
2021/08/13 07:37:56;;;;;;;15.05;11.10;;;25.40;95.30;;;;;;5012184;28;20037;-71
2021/08/13 07:40:22;;;;;;;17.55;11.63;;;25.40;94.50;;;;;;5013677;28;20053;-71
2021/08/13 07:42:47;;;;;;;15.27;11.60;;;25.40;94.70;;;;;;5020224;28;20044;-71
2021/08/13 07:45:13;;;;;;;17.30;10.80;;;25.40;94.90;;;;;;5020979;28;20486;-71
2021/08/13 07:47:39;;;;;;;18.42;12.25;;;25.40;95.20;;;;;;5012753;28;20091;-73
2021/08/13 07:50:06;;;;;;;14.60;10.43;;;25.50;95.30;;;;;;5020812;28;20104;-71
2021/08/13 07:52:32;;;;;;;12.45;9.85;;;25.50;94.90;;;;;;5031631;28;20163;-71
2021/08/13 07:54:58;;;;;;;17.08;9.93;;;25.50;94.40;;;;;;5015921;28;20844;-71
2021/08/13 07:57:25;;;;;;;13.77;10.90;;;25.60;94.40;;;;;;5012783;28;20392;-71
2021/08/13 07:59:51;;;;;;;13.25;10.30;;;25.70;94.50;;;;;;5011647;28;20041;-71
2021/08/13 08:02:17;;;;;;;18.10;10.85;;;25.80;93.30;;;;;;5012841;28;20030;-70
2021/08/13 08:04:44;;;;;;;17.40;10.82;;;25.90;93.00;;;;;;5030794;28;20025;-70
2021/08/13 08:07:10;;;;;;;15.55;10.70;;;25.90;92.70;;;;;;5031612;28;20033;-70
2021/08/13 08:09:35;;;;;;;16.02;10.48;;;26.00;92.70;;;;;;5019576;28;20025;-70
2021/08/13 08:12:01;;;;;;;16.48;10.27;;;25.90;92.30;;;;;;5018886;28;20695;-70
2021/08/13 08:14:27;;;;;;;14.65;10.60;;;25.90;92.50;;;;;;5012271;28;20072;-70
2021/08/13 08:16:52;;;;;;;16.02;11.43;;;26.10;92.10;;;;;;5018939;28;20037;-70
2021/08/13 08:19:18;;;;;;;15.43;9.88;;;26.20;91.80;;;;;;5021107;28;20057;-70
2021/08/13 08:21:43;;;;;;;15.23;10.95;;;26.30;91.60;;;;;;5027317;28;20053;-71
2021/08/13 08:24:12;;;;;;;14.27;10.57;;;26.30;91.60;;;;;;5012480;28;20034;-70
2021/08/13 08:26:38;;;;;;;15.43;10.93;;;26.50;90.80;;;;;;5012698;28;20065;-71
2021/08/13 08:29:04;;;;;;;14.73;10.30;;;26.80;90.20;;;;;;5011582;28;20033;-71
2021/08/13 08:31:29;;;;;;;15.35;10.10;;;26.90;90.20;;;;;;5013148;28;20026;-71
2021/08/13 08:33:55;;;;;;;16.42;10.43;;;27.00;90.10;;;;;;5011543;28;20530;-70
2021/08/13 08:36:21;;;;;;;15.98;10.00;;;27.10;89.20;;;;;;5014122;28;20065;-70
2021/08/13 08:38:46;;;;;;;14.80;11.05;;;27.20;88.50;;;;;;5030460;28;20033;-69
2021/08/13 08:41:12;;;;;;;19.23;11.15;;;27.30;87.70;;;;;;5021634;28;20050;-69
2021/08/13 08:43:37;;;;;;;13.55;9.98;;;27.40;87.80;;;;;;5011831;28;20095;-69
2021/08/13 08:46:04;;;;;;;19.25;10.20;;;27.50;86.30;;;;;;5021545;28;20097;-69
2021/08/13 08:48:35;;;;;;;16.25;11.05;;;27.50;86.10;;;;;;5015303;28;20120;-69
2021/08/13 08:51:02;;;;;;;22.92;10.65;;;27.50;86.50;;;;;;5012237;28;20613;-73
2021/08/13 08:53:29;;;;;;;12.00;9.30;;;27.50;85.20;;;;;;5012035;28;20146;-69
2021/08/13 08:55:56;;;;;;;20.75;10.27;;;27.50;86.90;;;;;;5011259;28;20519;-72
2021/08/13 08:58:23;;;;;;;16.13;11.07;;;27.60;84.50;;;;;;5012066;28;20034;-72
2021/08/13 09:00:49;;;;;;;14.30;9.02;;;27.50;83.40;;;;;;5010754;28;20033;-73
2021/08/13 09:03:16;;;;;;;14.52;8.98;;;27.40;83.80;;;;;;5011943;28;20034;-73
2021/08/13 09:05:44;;;;;;;11.73;8.43;;;27.40;84.10;;;;;;5012819;28;20054;-76
2021/08/13 09:08:11;;;;;;;10.15;8.90;;;27.50;84.70;;;;;;5011627;28;20115;-72
2021/08/13 09:10:36;;;;;;;12.20;9.30;;;27.60;84.70;;;;;;5015016;28;20041;-73
2021/08/13 09:13:04;;;;;;;13.25;9.43;;;27.80;82.30;;;;;;5010864;28;20026;-72
2021/08/13 09:15:38;;;;;;;12.82;8.82;;;27.90;81.70;;;;;;5013610;28;20063;-76
2021/08/13 09:18:13;;;;;;;13.07;8.38;;;27.90;80.80;;;;;;5014281;28;20112;-72
2021/08/13 09:20:42;;;;;;;13.38;9.10;;;28.10;80.90;;;;;;5028877;28;20025;-72
2021/08/13 09:23:07;;;;;;;11.82;8.13;;;28.20;81.50;;;;;;5023681;28;20030;-72
2021/08/13 09:25:33;;;;;;;12.70;8.93;;;28.30;81.40;;;;;;5029066;28;20033;-73
2021/08/13 09:27:59;;;;;;;15.88;8.70;;;28.40;81.00;;;;;;5022920;28;20363;-73
2021/08/13 09:30:25;;;;;;;14.30;9.27;;;28.50;81.50;;;;;;5016825;28;20040;-72
2021/08/13 09:33:05;;;;;;;10.38;8.75;;;28.60;78.80;;;;;;5011895;28;20117;-72
2021/08/13 09:35:35;;;;;;;10.07;7.57;;;28.80;79.40;;;;;;5025892;28;20091;-73
2021/08/13 09:38:09;;;;;;;12.82;9.18;;;28.80;78.40;;;;;;5019803;28;20049;-72
2021/08/13 09:40:46;;;;;;;14.52;9.02;;;28.90;78.00;;;;;;5012583;28;20057;-72
2021/08/13 09:43:12;;;;;;;11.48;8.50;;;29.00;77.60;;;;;;5023487;28;20391;-72
2021/08/13 09:45:38;;;;;;;13.30;8.60;;;29.10;76.30;;;;;;5017114;28;20030;-72
2021/08/13 09:48:04;;;;;;;14.05;7.95;;;29.20;75.50;;;;;;5033780;28;20676;-73
2021/08/13 09:50:38;;;;;;;10.55;8.00;;;29.30;75.30;;;;;;5018560;28;20030;-73
2021/08/13 09:53:08;;;;;;;11.88;8.27;;;29.30;75.00;;;;;;5033508;28;20466;-72
2021/08/13 09:55:35;;;;;;;14.68;8.02;;;29.40;75.00;;;;;;5017938;28;20060;-72
2021/08/13 09:58:01;;;;;;;12.15;7.68;;;29.40;75.50;;;;;;5025886;28;20038;-73
2021/08/13 10:00:27;;;;;;;12.32;7.97;;;29.50;74.40;;;;;;5033215;28;20029;-73
2021/08/13 10:03:06;;;;;;;12.27;7.88;;;29.70;73.10;;;;;;5017453;28;20489;-72
2021/08/13 10:05:32;;;;;;;9.57;7.20;;;29.90;72.60;;;;;;5034292;28;20075;-73
2021/08/13 10:08:03;;;;;;;13.05;8.82;;;29.90;72.30;;;;;;5033405;28;20030;-74
2021/08/13 10:10:29;;;;;;;13.10;8.40;;;30.00;72.40;;;;;;5019347;28;20116;-69
2021/08/13 10:12:56;;;;;;;11.52;7.75;;;30.10;71.40;;;;;;5032151;28;20479;-70
2021/08/13 10:15:46;;;;;;;14.32;8.43;;;30.20;71.40;;;;;;5034095;28;20036;-69
2021/08/13 10:18:14;;;;;;;14.73;8.48;;;30.40;71.00;;;;;;5026328;28;20029;-68
2021/08/13 10:20:48;;;;;;;11.70;7.65;;;30.50;70.10;;;;;;5026554;28;20402;-70
2021/08/13 10:23:14;;;;;;;38.00;19.33;;;30.70;69.60;;;;;;5014513;28;20034;-70
2021/08/13 10:25:41;;;;;;;61.40;27.95;;;30.70;69.30;;;;;;5020447;28;20478;-69
2021/08/13 10:28:07;;;;;;;20.67;11.50;;;30.70;69.00;;;;;;5030700;28;20382;-69
2021/08/13 10:30:33;;;;;;;12.85;9.27;;;30.70;69.20;;;;;;5032478;28;20041;-69
2021/08/13 10:33:03;;;;;;;15.35;8.15;;;30.80;69.20;;;;;;5032308;28;20033;-69
2021/08/13 10:35:49;;;;;;;16.48;8.43;;;30.80;68.40;;;;;;5014410;28;20037;-69
2021/08/13 10:38:18;;;;;;;15.70;8.05;;;30.80;69.30;;;;;;5014739;28;20030;-69
2021/08/13 10:40:44;;;;;;;12.80;7.88;;;30.80;69.90;;;;;;5021854;28;20054;-69
2021/08/13 10:43:12;;;;;;;15.27;7.80;;;30.80;69.20;;;;;;5013563;28;20038;-69
2021/08/13 10:45:40;;;;;;;12.20;9.00;;;31.00;69.50;;;;;;5016554;28;20076;-69
2021/08/13 10:48:29;;;;;;;14.57;8.30;;;31.00;68.10;;;;;;5017624;28;20605;-69
2021/08/13 10:50:58;;;;;;;12.98;8.82;;;30.80;68.70;;;;;;5012415;28;20026;-69
2021/08/13 10:53:31;;;;;;;11.95;9.07;;;30.80;68.70;;;;;;5014727;28;20026;-69
2021/08/13 10:55:59;;;;;;;13.70;8.43;;;30.90;68.80;;;;;;5032806;28;20039;-69
2021/08/13 10:58:40;;;;;;;12.45;8.73;;;30.90;68.80;;;;;;5016636;28;20030;-68
2021/08/13 11:01:06;;;;;;;9.57;7.65;;;30.90;68.60;;;;;;5018215;28;20655;-68
2021/08/13 11:03:37;;;;;;;11.75;8.23;;;30.90;69.40;;;;;;5032794;28;20029;-68
2021/08/13 11:06:04;;;;;;;11.85;8.70;;;31.00;68.80;;;;;;5032670;28;20030;-68
2021/08/13 11:08:42;;;;;;;13.10;9.27;;;31.10;69.00;;;;;;5026071;28;20124;-68
2021/08/13 11:11:14;;;;;;;9.98;7.75;;;31.20;67.80;;;;;;5013460;28;20058;-68
2021/08/13 11:13:42;;;;;;;10.07;7.90;;;31.10;68.10;;;;;;5013756;28;20547;-68
2021/08/13 11:16:26;;;;;;;11.30;7.60;;;31.10;68.10;;;;;;5022684;28;20028;-68
2021/08/13 11:18:56;;;;;;;12.05;8.73;;;31.20;67.90;;;;;;5032068;28;20025;-68
2021/08/13 11:21:38;;;;;;;14.60;8.90;;;31.30;67.20;;;;;;5013877;28;20164;-68
2021/08/13 11:24:12;;;;;;;10.35;7.68;;;31.40;66.80;;;;;;5029002;28;20113;-69
2021/08/13 11:26:50;;;;;;;14.70;8.82;;;31.50;66.60;;;;;;5032685;28;20026;-68
2021/08/13 11:29:38;;;;;;;12.02;8.48;;;31.40;66.10;;;;;;5031784;28;20056;-68
2021/08/13 11:32:14;;;;;;;12.82;8.25;;;31.30;67.00;;;;;;5012650;28;20030;-69
2021/08/13 11:34:48;;;;;;;12.88;9.05;;;31.30;67.10;;;;;;5013835;28;20063;-69
2021/08/13 11:37:41;;;;;;;14.98;9.15;;;31.40;66.40;;;;;;5019416;28;20099;-69
2021/08/13 11:40:29;;;;;;;11.63;8.85;;;31.40;66.20;;;;;;5017608;28;20041;-69
2021/08/13 11:42:59;;;;;;;12.32;8.13;;;31.40;66.60;;;;;;5012165;28;20040;-69
2021/08/13 11:45:36;;;;;;;10.55;8.10;;;31.50;67.80;;;;;;5028025;28;20030;-68
2021/08/13 11:48:03;;;;;;;11.18;8.73;;;31.60;66.90;;;;;;5012623;28;20092;-69
2021/08/13 11:50:29;;;;;;;10.82;8.40;;;31.80;66.20;;;;;;5013174;28;20061;-69
2021/08/13 11:52:55;;;;;;;12.00;7.97;;;31.80;65.90;;;;;;5027878;28;20065;-68
2021/08/13 11:55:26;;;;;;;12.45;7.88;;;31.90;67.20;;;;;;5032213;28;20457;-68
2021/08/13 11:57:54;;;;;;;13.98;7.75;;;31.80;65.70;;;;;;5031401;28;20037;-69
2021/08/13 12:00:25;;;;;;;13.23;8.52;;;31.70;65.90;;;;;;5013452;28;20492;-69
2021/08/13 12:02:58;;;;;;;12.70;8.38;;;31.70;66.10;;;;;;5012018;28;20063;-69
2021/08/13 12:05:30;;;;;;;9.50;8.50;;;31.70;66.00;;;;;;5014221;28;20063;-69
2021/08/13 12:08:02;;;;;;;14.27;8.60;;;31.50;66.50;;;;;;5026273;28;20559;-69
2021/08/13 12:10:29;;;;;;;12.07;8.10;;;31.60;66.80;;;;;;5026935;28;20108;-69
2021/08/13 12:12:55;;;;;;;15.70;8.45;;;31.70;65.40;;;;;;5026432;28;20029;-68
2021/08/13 12:15:32;;;;;;;8.77;7.85;;;31.80;65.40;;;;;;5012855;28;20486;-68
2021/08/13 12:17:58;;;;;;;12.05;8.02;;;31.80;65.30;;;;;;5011455;28;20042;-69
2021/08/13 12:20:25;;;;;;;11.70;9.02;;;31.80;65.80;;;;;;5018250;28;20064;-69
2021/08/13 12:23:01;;;;;;;10.75;8.90;;;31.90;66.20;;;;;;5030851;28;20029;-68
2021/08/13 12:25:36;;;;;;;14.75;9.02;;;31.90;65.30;;;;;;5028617;28;21436;-69
2021/08/13 12:28:03;;;;;;;9.70;8.63;;;31.90;65.80;;;;;;5021334;28;20125;-69
2021/08/13 12:30:29;;;;;;;13.63;8.85;;;31.90;65.20;;;;;;5012780;28;20026;-69
2021/08/13 12:32:56;;;;;;;9.48;7.85;;;31.80;65.70;;;;;;5011541;28;20032;-68
2021/08/13 12:35:22;;;;;;;12.43;8.20;;;31.80;66.50;;;;;;5022306;28;20030;-68
2021/08/13 12:37:48;;;;;;;10.50;8.05;;;31.60;65.90;;;;;;5031123;28;20489;-68
2021/08/13 12:40:15;;;;;;;13.75;7.72;;;31.50;66.70;;;;;;5012180;28;20402;-67